Time;durP1;ratioP1;P1;durP2;ratioP2;P2;SDS_P1;SDS_P2;PMS_P1;PMS_P2;Temp;Humidity;BMP_temperature;BMP_pressure;BME280_temperature;BME280_humidity;BME280_pressure;Samples;Min_cycle;Max_cycle;Signal;HPM_P1;HPM_P2
2023/02/11 00:00:24;;;;;;;41.50;22.50;;;4.50;99.90;;;;;;4974461;28;20188;-83
2023/02/11 00:02:50;;;;;;;46.03;24.03;;;4.50;99.90;;;;;;4974796;28;20183;-83
2023/02/11 00:05:15;;;;;;;37.90;22.57;;;4.60;99.90;;;;;;4975804;28;20180;-85
2023/02/11 00:07:42;;;;;;;35.47;21.73;;;4.60;99.90;;;;;;4974782;28;20207;-88
2023/02/11 00:10:08;;;;;;;42.67;23.17;;;4.60;99.90;;;;;;4974546;28;20220;-87
2023/02/11 00:12:35;;;;;;;42.93;25.53;;;4.60;99.90;;;;;;4975548;28;20242;-79
2023/02/11 00:15:01;;;;;;;45.43;23.40;;;4.70;99.90;;;;;;4974499;28;20219;-82
2023/02/11 00:17:27;;;;;;;45.37;24.67;;;4.70;99.90;;;;;;4974954;28;20177;-88
2023/02/11 00:19:53;;;;;;;44.70;24.97;;;4.70;99.90;;;;;;4978397;28;20283;-86
2023/02/11 00:22:18;;;;;;;43.57;24.43;;;4.70;99.90;;;;;;4978812;28;20207;-86
2023/02/11 00:24:44;;;;;;;46.83;25.57;;;4.70;99.90;;;;;;4978526;28;20184;-88
2023/02/11 00:27:10;;;;;;;46.03;24.60;;;4.70;99.90;;;;;;4977996;28;20239;-80
2023/02/11 00:29:37;;;;;;;47.53;25.20;;;4.70;99.90;;;;;;4977800;28;20199;-80
2023/02/11 00:32:04;;;;;;;43.70;25.50;;;4.80;99.90;;;;;;4978174;28;20576;-89
2023/02/11 00:34:33;;;;;;;43.93;25.10;;;4.80;99.90;;;;;;4979204;28;20246;-87
2023/02/11 00:37:02;;;;;;;50.30;25.37;;;4.90;99.90;;;;;;4979522;28;20188;-89
2023/02/11 00:39:28;;;;;;;44.27;25.30;;;4.90;99.90;;;;;;4979777;28;20169;-84
2023/02/11 00:41:54;;;;;;;43.73;24.83;;;4.90;99.90;;;;;;4977958;28;20264;-89
2023/02/11 00:44:20;;;;;;;45.60;26.30;;;4.90;99.90;;;;;;4978942;28;20180;-87
2023/02/11 00:46:45;;;;;;;43.63;25.13;;;4.90;99.90;;;;;;4978340;28;20191;-87
2023/02/11 00:49:11;;;;;;;48.97;25.63;;;4.90;99.90;;;;;;4977904;28;20203;-88
2023/02/11 00:51:37;;;;;;;43.73;25.30;;;5.00;99.90;;;;;;4978043;28;20272;-88
2023/02/11 00:54:03;;;;;;;46.60;27.70;;;5.00;99.90;;;;;;4978210;28;20191;-86
2023/02/11 00:56:29;;;;;;;49.47;27.00;;;5.00;99.90;;;;;;4977694;28;20212;-90
2023/02/11 00:58:56;;;;;;;46.47;25.23;;;5.00;99.90;;;;;;4977848;28;20181;-87
2023/02/11 01:01:22;;;;;;;46.07;25.80;;;5.10;99.90;;;;;;4977854;28;20173;-88
2023/02/11 01:03:48;;;;;;;45.13;26.73;;;5.10;99.90;;;;;;4977934;28;20239;-87
2023/02/11 01:06:14;;;;;;;48.23;26.40;;;5.20;99.90;;;;;;4977731;28;20184;-86
2023/02/11 01:08:39;;;;;;;44.27;26.20;;;5.20;99.90;;;;;;4977862;28;20177;-88
2023/02/11 01:11:11;;;;;;;49.10;26.87;;;5.20;99.90;;;;;;4977556;28;20192;-84
2023/02/11 01:13:37;;;;;;;51.87;26.70;;;5.20;99.90;;;;;;4977796;28;20173;-88
2023/02/11 01:16:06;;;;;;;47.27;26.23;;;5.20;99.90;;;;;;4977605;28;20218;-90
2023/02/11 01:18:33;;;;;;;46.07;26.60;;;5.20;99.90;;;;;;4977656;28;20180;-89
2023/02/11 01:20:59;;;;;;;45.33;25.93;;;5.20;99.90;;;;;;4977404;28;20243;-86
2023/02/11 01:23:24;;;;;;;46.73;27.17;;;5.20;99.90;;;;;;4977963;28;20177;-92
2023/02/11 01:25:50;;;;;;;49.83;27.53;;;5.10;99.90;;;;;;4978753;28;20177;-89
2023/02/11 01:28:21;;;;;;;46.83;27.83;;;5.10;99.90;;;;;;4977814;28;20185;-88
2023/02/11 01:30:47;;;;;;;51.00;28.73;;;5.30;99.90;;;;;;4977760;28;20232;-89
2023/02/11 01:33:13;;;;;;;55.30;28.53;;;5.30;99.90;;;;;;4977686;28;20627;-87
2023/02/11 01:35:40;;;;;;;49.50;27.30;;;5.30;99.90;;;;;;4977086;28;20212;-84
2023/02/11 01:38:25;;;;;;;51.03;27.93;;;5.40;99.90;;;;;;4978680;28;20181;-87
2023/02/11 01:40:57;;;;;;;46.40;26.37;;;5.40;99.90;;;;;;4978306;28;20267;-88
2023/02/11 01:43:24;;;;;;;49.47;28.43;;;5.50;99.90;;;;;;4978507;28;20235;-89
2023/02/11 01:46:03;;;;;;;47.47;28.27;;;5.50;99.90;;;;;;4978397;28;20260;-87
2023/02/11 01:51:22;;;;;;;50.03;28.00;;;5.30;99.90;;;;;;5351205;23;20277;-81
2023/02/11 01:59:40;;;;;;;50.07;28.53;;;5.30;99.90;;;;;;4957492;29;20164;-80
2023/02/11 02:02:10;;;;;;;47.73;27.47;;;5.30;99.90;;;;;;4940234;29;20181;-80
2023/02/11 02:04:59;;;;;;;62.40;30.00;;;5.30;99.90;;;;;;4957037;29;20162;-80
2023/02/11 02:07:37;;;;;;;48.80;28.70;;;5.30;99.90;;;;;;4955960;29;20272;-79
2023/02/11 02:10:10;;;;;;;57.23;27.97;;;5.30;99.90;;;;;;4957244;29;20173;-81
2023/02/11 02:12:36;;;;;;;50.63;30.03;;;5.30;99.90;;;;;;4957121;29;20204;-79
2023/02/11 02:15:20;;;;;;;52.07;30.23;;;5.40;99.90;;;;;;4957270;29;20212;-81
2023/02/11 02:18:14;;;;;;;53.07;30.07;;;5.30;99.90;;;;;;4957263;29;20587;-81
2023/02/11 02:21:10;;;;;;;53.63;28.50;;;5.30;99.90;;;;;;4915041;29;20196;-81
2023/02/11 02:24:11;;;;;;;54.20;28.57;;;5.30;99.90;;;;;;4939638;29;20284;-81
2023/02/11 02:27:10;;;;;;;58.43;29.47;;;5.30;99.90;;;;;;4939513;29;20208;-79
2023/02/11 02:29:55;;;;;;;50.60;27.87;;;5.30;99.90;;;;;;4955641;29;20260;-81
2023/02/11 02:32:45;;;;;;;53.63;29.00;;;5.30;99.90;;;;;;4956810;29;20659;-81
2023/02/11 02:35:40;;;;;;;58.63;29.87;;;5.40;99.90;;;;;;4956758;29;20201;-81
2023/02/11 02:38:24;;;;;;;47.67;27.90;;;5.30;99.90;;;;;;4956766;29;20174;-80
2023/02/11 02:41:08;;;;;;;56.40;30.67;;;5.40;99.90;;;;;;4956032;28;20180;-80
2023/02/11 02:43:38;;;;;;;59.10;29.90;;;5.40;99.90;;;;;;4956401;29;20661;-80
2023/02/11 02:46:41;;;;;;;60.70;31.23;;;5.40;99.90;;;;;;4956583;29;20161;-80
2023/02/11 02:49:13;;;;;;;56.30;30.00;;;5.40;99.90;;;;;;4951735;29;20241;-80
2023/02/11 02:52:14;;;;;;;58.73;31.87;;;5.40;99.90;;;;;;4956176;28;20240;-80
2023/02/11 02:54:47;;;;;;;55.53;31.33;;;5.40;99.90;;;;;;4939249;29;20173;-81
2023/02/11 02:57:54;;;;;;;57.20;31.07;;;5.40;99.90;;;;;;4956348;29;20177;-81
2023/02/11 03:00:42;;;;;;;62.73;32.00;;;5.40;99.90;;;;;;4910189;29;20213;-81
2023/02/11 03:03:11;;;;;;;59.33;33.23;;;5.40;99.90;;;;;;4956283;29;20720;-81
2023/02/11 03:05:37;;;;;;;59.03;31.87;;;5.40;99.90;;;;;;4956373;29;20170;-81
2023/02/11 03:08:19;;;;;;;61.13;32.87;;;5.40;99.90;;;;;;4956143;29;20505;-80
2023/02/11 03:10:49;;;;;;;66.07;32.40;;;5.30;99.90;;;;;;4956020;29;20184;-80
2023/02/11 03:13:16;;;;;;;60.77;32.50;;;5.40;99.90;;;;;;4955771;29;20511;-80
2023/02/11 03:15:46;;;;;;;60.83;32.93;;;5.40;99.90;;;;;;4954944;29;20217;-80
2023/02/11 03:18:15;;;;;;;67.63;33.13;;;5.40;99.90;;;;;;4956142;29;20181;-81
2023/02/11 03:20:44;;;;;;;61.60;32.17;;;5.40;99.90;;;;;;4955937;29;20181;-82
2023/02/11 03:23:27;;;;;;;61.00;33.73;;;5.40;99.90;;;;;;4955946;29;20623;-80
2023/02/11 03:26:01;;;;;;;65.90;33.97;;;5.40;99.90;;;;;;4956076;29;20161;-79
2023/02/11 03:28:34;;;;;;;53.93;31.17;;;5.50;99.90;;;;;;4955756;29;20248;-80
2023/02/11 03:31:27;;;;;;;62.27;32.37;;;5.40;99.90;;;;;;4955649;29;20212;-80
2023/02/11 03:34:15;;;;;;;62.47;31.57;;;5.50;99.90;;;;;;4938616;29;20177;-81
2023/02/11 03:36:50;;;;;;;60.33;33.13;;;5.50;99.90;;;;;;4955724;29;20727;-80
2023/02/11 03:39:21;;;;;;;60.60;32.57;;;5.40;99.90;;;;;;4954416;29;20188;-81
2023/02/11 03:41:48;;;;;;;65.20;33.13;;;5.40;99.90;;;;;;4955302;29;20177;-79
2023/02/11 03:44:16;;;;;;;63.50;32.53;;;5.50;99.90;;;;;;4955718;29;20180;-81
2023/02/11 03:46:47;;;;;;;63.83;32.77;;;5.40;99.90;;;;;;4955818;29;20495;-79
2023/02/11 03:49:17;;;;;;;61.73;33.10;;;5.50;99.90;;;;;;4955599;29;20213;-82
2023/02/11 03:51:43;;;;;;;58.50;32.20;;;5.50;99.90;;;;;;4955331;29;20688;-80
2023/02/11 03:54:16;;;;;;;59.87;32.97;;;5.50;99.90;;;;;;4937995;29;20196;-81
2023/02/11 03:56:53;;;;;;;56.80;31.60;;;5.60;99.90;;;;;;4955500;29;20228;-81
2023/02/11 03:59:18;;;;;;;60.23;30.67;;;5.50;99.90;;;;;;4955516;29;20169;-81
2023/02/11 04:01:44;;;;;;;54.00;31.90;;;5.50;99.90;;;;;;4954218;29;20527;-82
2023/02/11 04:04:10;;;;;;;56.13;31.23;;;5.50;99.90;;;;;;4955485;29;20604;-80
2023/02/11 04:06:36;;;;;;;63.07;33.03;;;5.50;99.90;;;;;;4955509;29;20264;-81
2023/02/11 04:09:01;;;;;;;62.43;33.03;;;5.50;99.90;;;;;;4955321;29;20192;-79
2023/02/11 04:11:27;;;;;;;60.00;32.50;;;5.50;99.90;;;;;;4955346;29;20178;-79
2023/02/11 04:13:53;;;;;;;58.77;32.90;;;5.50;99.90;;;;;;4955232;29;20192;-81
2023/02/11 04:16:19;;;;;;;61.03;32.40;;;5.50;99.90;;;;;;4955392;29;20551;-79
2023/02/11 04:18:44;;;;;;;59.47;31.80;;;5.50;99.90;;;;;;4955356;29;20184;-81
2023/02/11 04:21:10;;;;;;;67.07;31.53;;;5.50;99.90;;;;;;4955096;29;20185;-81
2023/02/11 04:23:36;;;;;;;63.10;31.77;;;5.50;99.90;;;;;;4955242;29;20177;-81
2023/02/11 04:26:02;;;;;;;57.50;31.47;;;5.60;99.90;;;;;;4955465;29;20250;-81
2023/02/11 04:28:28;;;;;;;64.37;31.10;;;5.50;99.90;;;;;;4955186;29;20539;-81
2023/02/11 04:30:55;;;;;;;61.43;32.10;;;5.50;99.90;;;;;;4955293;29;20180;-80
2023/02/11 04:33:21;;;;;;;61.20;31.60;;;5.60;99.90;;;;;;4955128;29;20687;-80
2023/02/11 04:35:47;;;;;;;58.50;32.13;;;5.60;99.90;;;;;;4955111;29;20217;-80
2023/02/11 04:38:13;;;;;;;55.90;30.87;;;5.50;99.90;;;;;;4955068;29;20185;-82
2023/02/11 04:40:39;;;;;;;59.93;32.30;;;5.50;99.90;;;;;;4955018;29;20233;-80
2023/02/11 04:43:05;;;;;;;65.10;31.03;;;5.50;99.90;;;;;;4937725;29;20635;-80
2023/02/11 04:45:32;;;;;;;65.30;32.33;;;5.50;99.90;;;;;;4955272;29;20578;-79
2023/02/11 04:47:58;;;;;;;63.63;30.50;;;5.50;99.90;;;;;;4955091;29;20256;-80
2023/02/11 04:50:23;;;;;;;60.73;31.47;;;5.50;99.90;;;;;;4954706;28;20307;-79
2023/02/11 04:52:49;;;;;;;61.93;30.53;;;5.50;99.90;;;;;;4954975;29;20488;-79
2023/02/11 04:55:15;;;;;;;65.90;33.17;;;5.50;99.90;;;;;;4955044;29;20595;-80
2023/02/11 04:57:40;;;;;;;63.33;33.17;;;5.50;99.90;;;;;;4954904;29;20212;-81
2023/02/11 05:00:08;;;;;;;63.53;32.67;;;5.50;99.90;;;;;;4954828;29;20180;-80
2023/02/11 05:02:34;;;;;;;64.03;31.57;;;5.50;99.90;;;;;;4937683;29;20531;-80
2023/02/11 05:05:00;;;;;;;60.40;32.80;;;5.50;99.90;;;;;;4956249;28;20239;-79
2023/02/11 05:07:25;;;;;;;64.23;34.80;;;5.40;99.90;;;;;;4958330;29;20224;-80
2023/02/11 05:09:51;;;;;;;69.07;33.53;;;5.40;99.90;;;;;;4957243;29;20761;-81
2023/02/11 05:12:17;;;;;;;65.77;33.60;;;5.50;99.90;;;;;;4958357;29;20185;-80
2023/02/11 05:14:43;;;;;;;60.57;32.40;;;5.50;99.90;;;;;;4958325;29;20173;-81
2023/02/11 05:17:08;;;;;;;65.03;33.07;;;5.40;99.90;;;;;;4958620;29;20252;-80
2023/02/11 05:19:34;;;;;;;66.40;33.50;;;5.40;99.90;;;;;;4958047;29;20613;-80
2023/02/11 05:22:00;;;;;;;61.07;32.20;;;5.50;99.90;;;;;;4958084;29;20181;-79
2023/02/11 05:24:25;;;;;;;62.87;33.60;;;5.50;99.90;;;;;;4958230;29;20188;-80
2023/02/11 05:26:51;;;;;;;58.83;31.27;;;5.50;99.90;;;;;;4958026;29;20228;-81
2023/02/11 05:29:17;;;;;;;56.07;32.73;;;5.50;99.90;;;;;;4957974;29;20200;-80
2023/02/11 05:31:43;;;;;;;61.30;33.57;;;5.50;99.90;;;;;;4957976;29;20173;-80
2023/02/11 05:34:08;;;;;;;60.73;33.23;;;5.40;99.90;;;;;;4957898;29;20322;-80
2023/02/11 05:36:35;;;;;;;59.90;34.47;;;5.40;99.90;;;;;;4957817;29;20205;-79
2023/02/11 05:39:00;;;;;;;68.43;33.87;;;5.50;99.90;;;;;;4956436;29;20520;-79
2023/02/11 05:41:26;;;;;;;61.30;33.67;;;5.50;99.90;;;;;;4957303;29;20181;-81
2023/02/11 05:43:52;;;;;;;58.20;31.93;;;5.50;99.90;;;;;;4957888;29;20628;-81
2023/02/11 05:46:18;;;;;;;64.10;33.77;;;5.50;99.90;;;;;;4940267;29;20264;-79
2023/02/11 05:48:43;;;;;;;62.17;33.43;;;5.50;99.90;;;;;;4957590;29;20181;-80
2023/02/11 05:51:09;;;;;;;62.93;33.20;;;5.50;99.90;;;;;;4956930;29;20247;-81
2023/02/11 05:53:35;;;;;;;65.83;33.00;;;5.50;99.90;;;;;;4957426;29;20177;-81
2023/02/11 05:56:01;;;;;;;62.97;32.90;;;5.50;99.90;;;;;;4957412;29;20212;-80
2023/02/11 05:58:27;;;;;;;57.80;31.17;;;5.60;99.90;;;;;;4957629;29;20213;-80
2023/02/11 06:00:53;;;;;;;63.43;32.17;;;5.50;99.90;;;;;;4957341;29;20711;-80
2023/02/11 06:03:19;;;;;;;65.23;33.97;;;5.60;99.90;;;;;;4957298;29;20189;-79
2023/02/11 06:05:45;;;;;;;57.07;31.10;;;5.60;99.90;;;;;;4957359;29;20196;-79
2023/02/11 06:08:11;;;;;;;58.70;30.40;;;5.60;99.90;;;;;;4957393;29;20612;-79
2023/02/11 06:10:36;;;;;;;61.10;30.40;;;5.60;99.90;;;;;;4956939;29;20213;-80
2023/02/11 06:13:02;;;;;;;62.27;32.17;;;5.60;99.90;;;;;;4957458;29;20193;-80
2023/02/11 06:15:28;;;;;;;56.63;32.43;;;5.60;99.90;;;;;;4956993;28;20211;-80
2023/02/11 06:17:54;;;;;;;61.10;30.30;;;5.60;99.90;;;;;;4957204;29;20235;-79
2023/02/11 06:20:20;;;;;;;63.73;31.27;;;5.60;99.90;;;;;;4957092;29;20177;-82
2023/02/11 06:22:46;;;;;;;61.40;31.97;;;5.60;99.90;;;;;;4957011;29;20330;-80
2023/02/11 06:25:12;;;;;;;59.27;31.13;;;5.60;99.90;;;;;;4956831;29;20236;-80
2023/02/11 06:27:38;;;;;;;61.23;30.73;;;5.60;99.90;;;;;;4957158;29;20180;-80
2023/02/11 06:30:06;;;;;;;54.17;30.43;;;5.60;99.90;;;;;;4939503;29;20181;-81
2023/02/11 06:32:31;;;;;;;55.17;30.37;;;5.60;99.90;;;;;;4956750;29;20261;-81
2023/02/11 06:34:57;;;;;;;57.80;31.23;;;5.60;99.90;;;;;;4956674;29;20279;-81
2023/02/11 06:37:23;;;;;;;52.20;30.23;;;5.60;99.90;;;;;;4956856;29;20178;-81
2023/02/11 06:39:48;;;;;;;55.67;30.17;;;5.70;99.90;;;;;;4939566;29;20181;-81
2023/02/11 06:42:14;;;;;;;53.97;30.07;;;5.70;99.90;;;;;;4956395;29;20181;-81
2023/02/11 06:44:40;;;;;;;54.47;30.40;;;5.60;99.90;;;;;;4956621;29;20173;-81
2023/02/11 06:47:06;;;;;;;47.90;28.70;;;5.60;99.90;;;;;;4956586;29;20197;-79
2023/02/11 06:49:32;;;;;;;50.83;29.47;;;5.60;99.90;;;;;;4939267;29;20185;-80
2023/02/11 06:51:58;;;;;;;52.80;28.80;;;5.60;99.90;;;;;;4956363;29;20225;-81
2023/02/11 06:54:24;;;;;;;52.17;28.87;;;5.70;99.90;;;;;;4956565;29;20181;-81
2023/02/11 06:56:50;;;;;;;46.07;27.27;;;5.70;99.90;;;;;;4956210;29;20292;-81
2023/02/11 06:59:17;;;;;;;52.10;28.03;;;5.60;99.90;;;;;;4956265;29;20236;-81
2023/02/11 07:01:43;;;;;;;49.23;27.87;;;5.60;99.90;;;;;;4956438;29;20185;-81
2023/02/11 07:04:09;;;;;;;46.73;27.03;;;5.60;99.90;;;;;;4956223;29;20508;-81
2023/02/11 07:06:36;;;;;;;47.53;27.53;;;5.70;99.90;;;;;;4956259;29;20501;-81
2023/02/11 07:09:03;;;;;;;47.23;26.23;;;5.70;99.90;;;;;;4955969;29;20578;-80
2023/02/11 07:11:30;;;;;;;45.57;27.83;;;5.70;99.90;;;;;;4955789;29;20212;-80
2023/02/11 07:14:03;;;;;;;46.60;27.37;;;5.70;99.90;;;;;;4938741;29;20676;-80
2023/02/11 07:16:30;;;;;;;44.50;26.20;;;5.70;99.90;;;;;;4956040;29;20299;-80
2023/02/11 07:18:56;;;;;;;44.23;26.20;;;5.70;99.90;;;;;;4955844;29;20228;-80
2023/02/11 07:21:23;;;;;;;47.33;26.77;;;5.80;99.90;;;;;;4956077;29;20642;-80
2023/02/11 07:23:50;;;;;;;50.47;26.40;;;5.80;99.90;;;;;;4956097;29;20272;-81
2023/02/11 07:26:18;;;;;;;49.43;26.40;;;5.80;99.90;;;;;;4955638;29;20231;-78
2023/02/11 07:28:44;;;;;;;46.33;26.53;;;5.90;99.90;;;;;;4955406;28;20182;-80
2023/02/11 07:31:21;;;;;;;48.10;25.30;;;5.90;99.90;;;;;;4955750;29;20603;-80
2023/02/11 07:33:47;;;;;;;46.17;25.53;;;5.90;99.90;;;;;;4956001;29;20169;-81
2023/02/11 07:36:15;;;;;;;46.10;26.47;;;5.90;99.90;;;;;;4955809;29;20212;-80
2023/02/11 07:38:41;;;;;;;51.53;26.40;;;5.90;99.90;;;;;;4955707;29;20190;-80
2023/02/11 07:41:10;;;;;;;47.93;25.30;;;5.90;99.90;;;;;;4955243;29;20217;-80
2023/02/11 07:43:37;;;;;;;44.83;25.87;;;6.00;99.90;;;;;;4955592;29;20548;-81
2023/02/11 07:46:16;;;;;;;44.73;26.57;;;6.00;99.90;;;;;;4955733;29;20543;-80
2023/02/11 07:48:42;;;;;;;44.30;24.30;;;6.00;99.90;;;;;;4955724;29;20589;-81
2023/02/11 07:51:14;;;;;;;49.03;26.60;;;6.00;99.90;;;;;;4955350;29;20285;-81
2023/02/11 07:53:40;;;;;;;47.57;25.73;;;6.10;99.90;;;;;;4955572;29;20346;-81
2023/02/11 07:56:07;;;;;;;43.53;24.83;;;6.10;99.90;;;;;;4955144;29;20640;-81
2023/02/11 07:58:34;;;;;;;45.43;25.60;;;6.20;99.90;;;;;;4955473;29;20161;-81
2023/02/11 08:01:01;;;;;;;46.80;25.37;;;6.10;99.90;;;;;;4955448;29;20510;-81
2023/02/11 08:03:27;;;;;;;41.97;24.60;;;6.10;99.90;;;;;;4955588;29;20196;-80
2023/02/11 08:05:52;;;;;;;48.30;25.43;;;6.10;99.90;;;;;;4938387;29;20193;-81
2023/02/11 08:08:18;;;;;;;42.33;25.30;;;6.20;99.90;;;;;;4955522;29;20227;-81
2023/02/11 08:10:44;;;;;;;42.90;25.30;;;6.20;99.90;;;;;;4955001;29;20553;-81
2023/02/11 08:13:10;;;;;;;43.27;24.70;;;6.20;99.90;;;;;;4954182;29;20676;-80
2023/02/11 08:15:35;;;;;;;44.37;24.93;;;6.30;99.90;;;;;;4955221;29;20313;-81
2023/02/11 08:18:01;;;;;;;42.87;25.27;;;6.30;99.90;;;;;;4955593;29;20181;-81
2023/02/11 08:20:26;;;;;;;43.87;24.87;;;6.30;99.90;;;;;;4955113;29;20179;-80
2023/02/11 08:22:52;;;;;;;41.87;24.63;;;6.40;99.90;;;;;;4955216;29;20177;-79
2023/02/11 08:25:18;;;;;;;51.37;25.27;;;6.40;99.90;;;;;;4955327;29;20188;-81
2023/02/11 08:27:43;;;;;;;45.27;25.53;;;6.40;99.90;;;;;;4955106;29;20624;-81
2023/02/11 08:30:10;;;;;;;45.57;24.40;;;6.30;99.90;;;;;;4937844;29;20185;-80
2023/02/11 08:32:36;;;;;;;45.37;24.33;;;6.30;99.90;;;;;;4955288;29;20518;-80
2023/02/11 08:35:01;;;;;;;53.00;26.17;;;6.30;99.90;;;;;;4955338;29;20209;-80
2023/02/11 08:37:27;;;;;;;47.73;24.53;;;6.30;99.90;;;;;;4955020;29;20204;-79
2023/02/11 08:39:53;;;;;;;47.37;26.03;;;6.30;99.90;;;;;;4956126;28;20260;-80
2023/02/11 08:42:19;;;;;;;43.33;25.00;;;6.30;99.90;;;;;;4958488;29;20191;-80
2023/02/11 08:44:45;;;;;;;51.07;25.63;;;6.30;99.90;;;;;;4957331;29;20188;-81
2023/02/11 08:47:10;;;;;;;43.60;24.97;;;6.30;99.90;;;;;;4957867;29;20224;-81
2023/02/11 08:49:36;;;;;;;43.67;24.17;;;6.40;99.90;;;;;;4940981;29;20617;-80
2023/02/11 08:52:03;;;;;;;45.07;25.53;;;6.40;99.90;;;;;;4958146;29;20582;-78
2023/02/11 08:54:30;;;;;;;44.13;24.77;;;6.40;99.90;;;;;;4944698;29;20192;-80
2023/02/11 08:56:56;;;;;;;45.90;25.20;;;6.40;99.90;;;;;;4958248;29;20721;-80
2023/02/11 08:59:22;;;;;;;41.93;24.93;;;6.40;99.90;;;;;;4959014;29;20228;-82
2023/02/11 09:01:48;;;;;;;52.53;26.03;;;6.40;99.90;;;;;;4940830;29;20182;-80
2023/02/11 09:04:16;;;;;;;44.00;23.80;;;6.40;99.90;;;;;;4958530;29;20182;-80
2023/02/11 09:06:41;;;;;;;40.33;24.73;;;6.40;99.90;;;;;;4958396;29;20239;-80
2023/02/11 09:09:12;;;;;;;45.40;25.87;;;6.50;99.90;;;;;;4957499;29;20609;-82
2023/02/11 09:11:39;;;;;;;47.57;26.30;;;6.50;99.90;;;;;;4958400;29;20162;-81
2023/02/11 09:14:06;;;;;;;47.43;25.43;;;6.50;99.90;;;;;;4956918;29;20264;-81
2023/02/11 09:16:34;;;;;;;45.60;25.33;;;6.60;99.90;;;;;;4939368;29;20868;-81
2023/02/11 09:19:04;;;;;;;39.43;23.67;;;6.60;99.90;;;;;;4954783;29;20198;-81
2023/02/11 09:21:29;;;;;;;46.23;23.57;;;6.60;99.90;;;;;;4957814;29;20185;-80
2023/02/11 09:23:56;;;;;;;51.57;25.43;;;6.50;99.90;;;;;;4957573;29;20268;-80
2023/02/11 09:26:27;;;;;;;42.70;23.73;;;6.60;99.90;;;;;;4957900;29;20267;-81
2023/02/11 09:28:54;;;;;;;43.97;24.07;;;6.60;99.90;;;;;;4958204;29;20206;-81
2023/02/11 09:31:22;;;;;;;44.27;23.47;;;6.60;99.90;;;;;;4957848;29;20173;-81
2023/02/11 09:33:50;;;;;;;47.37;23.73;;;6.70;99.90;;;;;;4957886;29;20189;-80
2023/02/11 09:36:19;;;;;;;44.67;22.13;;;6.80;99.90;;;;;;4957814;29;20541;-81
2023/02/11 09:38:46;;;;;;;42.63;22.10;;;6.80;99.90;;;;;;4957867;29;20202;-79
2023/02/11 09:41:38;;;;;;;41.33;22.67;;;6.70;99.90;;;;;;4957525;29;20185;-81
2023/02/11 09:44:06;;;;;;;40.53;22.60;;;6.70;99.90;;;;;;4912957;29;20199;-82
2023/02/11 09:46:40;;;;;;;44.70;23.47;;;6.70;99.90;;;;;;4957764;29;20205;-81
2023/02/11 09:49:14;;;;;;;42.23;23.13;;;6.70;99.90;;;;;;4957498;29;20185;-82
2023/02/11 09:51:48;;;;;;;53.90;22.70;;;6.70;99.90;;;;;;4957039;28;20227;-81
2023/02/11 09:54:34;;;;;;;43.20;24.73;;;6.70;99.90;;;;;;4940225;29;20174;-80
2023/02/11 09:57:00;;;;;;;40.60;23.07;;;6.60;99.90;;;;;;4955612;29;20291;-81
2023/02/11 09:59:25;;;;;;;42.60;23.80;;;6.80;99.90;;;;;;4940105;29;20228;-80
2023/02/11 10:01:57;;;;;;;48.93;24.77;;;6.80;99.90;;;;;;4957744;29;20186;-79
2023/02/11 10:04:48;;;;;;;45.33;24.30;;;6.70;99.90;;;;;;4940191;29;20173;-80
2023/02/11 10:07:30;;;;;;;44.27;24.77;;;6.60;99.90;;;;;;4939461;29;20173;-81
2023/02/11 10:10:15;;;;;;;42.37;23.93;;;6.60;99.90;;;;;;4956239;29;20220;-82
2023/02/11 10:13:14;;;;;;;46.23;23.87;;;6.70;99.90;;;;;;4956416;29;20181;-81
2023/02/11 10:15:43;;;;;;;46.07;22.97;;;6.70;99.90;;;;;;4956710;29;20212;-81
2023/02/11 10:18:24;;;;;;;42.67;23.23;;;6.70;99.90;;;;;;4957156;29;20174;-80
2023/02/11 10:20:52;;;;;;;43.63;23.07;;;6.70;99.90;;;;;;4939663;29;20271;-80
2023/02/11 10:23:24;;;;;;;44.10;25.67;;;6.70;99.90;;;;;;4956985;29;20181;-80
2023/02/11 10:25:55;;;;;;;42.23;23.50;;;6.60;99.90;;;;;;4956707;29;20162;-79
2023/02/11 10:28:23;;;;;;;42.90;22.53;;;6.70;99.90;;;;;;4957003;29;20166;-81
2023/02/11 10:31:01;;;;;;;44.70;23.87;;;6.70;99.90;;;;;;4956862;29;20181;-81
2023/02/11 10:33:58;;;;;;;47.60;23.63;;;6.70;99.90;;;;;;4956859;29;20177;-80
2023/02/11 10:36:34;;;;;;;46.83;23.93;;;6.70;99.90;;;;;;4918750;29;20287;-79
2023/02/11 10:39:21;;;;;;;41.03;24.37;;;6.80;99.90;;;;;;4956467;29;20252;-81
2023/02/11 10:42:00;;;;;;;46.90;22.63;;;6.80;99.90;;;;;;4939119;29;20192;-79
2023/02/11 10:44:40;;;;;;;38.97;22.30;;;6.90;99.90;;;;;;4956836;29;20181;-80
2023/02/11 10:47:20;;;;;;;45.23;22.80;;;6.90;99.90;;;;;;4956916;29;20181;-80
2023/02/11 10:49:47;;;;;;;44.57;23.43;;;7.00;99.90;;;;;;4939088;28;20173;-80
2023/02/11 10:52:24;;;;;;;40.37;23.80;;;7.00;99.90;;;;;;4947131;29;20193;-85
2023/02/11 10:54:57;;;;;;;42.23;22.57;;;6.90;99.90;;;;;;4947484;29;20181;-80
2023/02/11 10:57:34;;;;;;;46.10;23.53;;;7.00;99.90;;;;;;4939296;29;20639;-80
2023/02/11 11:00:23;;;;;;;39.70;22.53;;;7.00;99.90;;;;;;4956383;29;20165;-80
2023/02/11 11:02:55;;;;;;;43.20;22.13;;;7.00;99.90;;;;;;4928078;29;20270;-79
2023/02/11 11:05:51;;;;;;;46.03;22.80;;;7.10;99.90;;;;;;4936726;29;20529;-80
2023/02/11 11:08:18;;;;;;;45.53;22.17;;;7.00;99.90;;;;;;4935890;29;20368;-80
2023/02/11 11:11:03;;;;;;;44.03;24.13;;;6.90;99.90;;;;;;4952955;29;20231;-79
2023/02/11 11:13:35;;;;;;;42.77;23.07;;;7.10;99.90;;;;;;4956122;29;20161;-81
2023/02/11 11:16:11;;;;;;;38.47;22.10;;;6.90;99.90;;;;;;4956015;29;20280;-79
2023/02/11 11:18:42;;;;;;;47.63;23.47;;;7.00;99.90;;;;;;4938996;29;20838;-80
2023/02/11 11:21:21;;;;;;;37.90;23.53;;;7.00;99.90;;;;;;4956049;29;20538;-79
2023/02/11 11:23:58;;;;;;;37.27;22.13;;;7.10;99.90;;;;;;4956021;29;20172;-80
2023/02/11 11:26:46;;;;;;;45.80;23.17;;;7.00;99.90;;;;;;4955646;29;20186;-79
2023/02/11 11:29:26;;;;;;;39.07;22.97;;;7.10;99.90;;;;;;4955255;29;20196;-80
2023/02/11 11:31:59;;;;;;;43.37;22.90;;;7.10;99.90;;;;;;4954679;29;20204;-81
2023/02/11 11:34:32;;;;;;;35.53;21.47;;;7.20;99.90;;;;;;4955712;29;20636;-81
2023/02/11 11:37:00;;;;;;;39.70;22.53;;;7.20;99.90;;;;;;4954634;29;20285;-80
2023/02/11 11:39:32;;;;;;;37.30;22.50;;;7.30;99.90;;;;;;4953682;29;20573;-80
2023/02/11 11:42:06;;;;;;;36.40;22.83;;;7.20;99.90;;;;;;4955623;29;20204;-79
2023/02/11 11:44:36;;;;;;;39.17;23.47;;;7.10;99.90;;;;;;4955739;29;20175;-81
2023/02/11 11:47:11;;;;;;;40.63;21.70;;;7.20;99.90;;;;;;4938503;29;20189;-80
2023/02/11 11:50:16;;;;;;;44.33;24.57;;;7.10;99.90;;;;;;4955480;29;20180;-81
2023/02/11 11:52:47;;;;;;;41.27;24.53;;;7.20;99.90;;;;;;4915896;29;20252;-81
2023/02/11 11:55:44;;;;;;;42.80;24.27;;;7.10;99.90;;;;;;4917447;29;20203;-81
2023/02/11 11:58:17;;;;;;;45.07;23.37;;;7.10;99.90;;;;;;4909626;29;20201;-80
2023/02/11 12:01:05;;;;;;;46.53;23.67;;;7.20;99.90;;;;;;4917329;29;20492;-81
2023/02/11 12:03:47;;;;;;;45.37;23.20;;;7.20;99.90;;;;;;4916904;29;20265;-81
2023/02/11 12:06:43;;;;;;;39.47;22.60;;;7.30;99.90;;;;;;4917403;29;20595;-80
2023/02/11 12:09:17;;;;;;;37.43;21.90;;;7.30;99.90;;;;;;4917210;29;20635;-81
2023/02/11 12:11:56;;;;;;;35.60;22.40;;;7.30;99.90;;;;;;4917262;29;20162;-79
2023/02/11 12:14:26;;;;;;;43.27;23.63;;;7.20;99.90;;;;;;4918118;29;20283;-80
2023/02/11 12:17:02;;;;;;;45.30;23.70;;;7.20;99.90;;;;;;4921032;29;20713;-81
2023/02/11 12:20:05;;;;;;;42.27;23.40;;;7.30;99.90;;;;;;4921053;29;20182;-81
2023/02/11 12:22:55;;;;;;;37.10;21.53;;;7.30;99.90;;;;;;4920717;29;20174;-79
2023/02/11 12:25:35;;;;;;;42.87;22.57;;;7.20;99.90;;;;;;4921273;29;20513;-80
2023/02/11 12:28:16;;;;;;;43.27;22.27;;;7.30;99.90;;;;;;4921146;29;20254;-81
2023/02/11 12:30:51;;;;;;;37.37;22.63;;;7.20;99.90;;;;;;4920737;29;20177;-81
2023/02/11 12:33:41;;;;;;;40.87;22.40;;;7.30;99.90;;;;;;4920872;29;20250;-81
2023/02/11 12:36:21;;;;;;;39.67;22.50;;;7.30;99.90;;;;;;4920831;29;20210;-79
2023/02/11 12:39:31;;;;;;;36.80;22.77;;;7.30;99.90;;;;;;4920776;29;20257;-80
2023/02/11 12:45:12;;;;;;;35.10;20.70;;;7.30;99.90;;;;;;4920730;29;20576;-80
2023/02/11 12:47:47;;;;;;;42.83;22.33;;;7.30;99.90;;;;;;4920501;29;20174;-80
2023/02/11 12:50:46;;;;;;;38.20;23.00;;;7.40;99.90;;;;;;4927225;28;20564;-80
2023/02/11 12:53:36;;;;;;;38.27;21.17;;;7.40;99.90;;;;;;4958542;29;20264;-79
2023/02/11 12:56:37;;;;;;;36.40;20.20;;;7.50;99.90;;;;;;4958384;29;20255;-81
2023/02/11 12:59:07;;;;;;;38.97;20.67;;;7.50;99.90;;;;;;4968744;28;20181;-81
2023/02/11 13:01:39;;;;;;;36.03;21.03;;;7.50;99.90;;;;;;4958585;29;20209;-81
2023/02/11 13:04:18;;;;;;;40.37;20.23;;;7.50;99.90;;;;;;4958495;29;20216;-81
2023/02/11 13:06:50;;;;;;;35.53;20.33;;;7.50;99.90;;;;;;4958674;29;20173;-80
2023/02/11 13:09:25;;;;;;;30.33;19.43;;;7.50;99.90;;;;;;4958336;29;20185;-80